Berthold, North Dakota
Current Conditions -  °F | °C
As of 6:33 PM on Sunday 23 Nov 2014 (Local Time) from KMIB Reporting Station
Unknown Precip Unknown Precip  
Wind Chill:   Ceiling: 900
Heat Index: 18°   Visibility: 10mi
Dew Point: 12°   Wind: 23mph
Humidity: 79%   Direction: 330°NNW
Pressure: 29.7"   Gusts: 31mph
Location:  48.31°N, 101.74°W
Report Text: KMIB 240033Z AUTO 33020G27KT 10SM UP BKN009 OVC014 M08/M11 A2970 RMK AO2 UPB0007E0029SNE0007 CIG 009V011
Loading
Personal Weather Stations






























Interactive Weather Map New forecast layout! Learn more

10-Day Weather Forecast

Advertisements
Track Severe Weather on mobile